Time;durP1;ratioP1;P1;durP2;ratioP2;P2;SDS_P1;SDS_P2;PMS_P1;PMS_P2;Temp;Humidity;BMP_temperature;BMP_pressure;BME280_temperature;BME280_humidity;BME280_pressure;Samples;Min_cycle;Max_cycle;Signal;HPM_P1;HPM_P2
2022/06/14 00:01:13;;;;;;;4.53;2.03;;;13.30;99.90;;;;;;5050332;28;20762;-65
2022/06/14 00:03:42;;;;;;;8.27;2.47;;;13.30;99.90;;;;;;5048645;28;20133;-65
2022/06/14 00:06:19;;;;;;;4.40;2.40;;;13.20;99.90;;;;;;5032880;28;20048;-65
2022/06/14 00:08:46;;;;;;;7.60;2.47;;;13.20;99.90;;;;;;5051087;28;20045;-65
2022/06/14 00:11:16;;;;;;;5.53;2.70;;;13.20;99.90;;;;;;5029820;28;20060;-65
2022/06/14 00:13:43;;;;;;;4.38;2.55;;;13.10;99.90;;;;;;5048603;28;20041;-65
2022/06/14 00:16:12;;;;;;;5.47;2.20;;;13.10;99.90;;;;;;5050918;28;20044;-65
2022/06/14 00:18:39;;;;;;;4.53;2.25;;;13.20;99.90;;;;;;5050789;28;20041;-65
2022/06/14 00:21:06;;;;;;;3.95;2.17;;;13.00;99.90;;;;;;5045695;28;20040;-65
2022/06/14 00:23:33;;;;;;;6.50;2.78;;;13.00;99.90;;;;;;5050642;28;20382;-65
2022/06/14 00:26:00;;;;;;;5.85;2.55;;;12.90;99.90;;;;;;5050933;28;20099;-65
2022/06/14 00:28:29;;;;;;;4.88;2.55;;;12.90;99.90;;;;;;5052835;28;20049;-65
2022/06/14 00:31:04;;;;;;;4.57;2.20;;;12.80;99.90;;;;;;5046921;28;20483;-64
2022/06/14 00:33:31;;;;;;;6.32;2.42;;;12.80;99.90;;;;;;5036712;28;20405;-64
2022/06/14 00:36:01;;;;;;;4.45;2.42;;;12.70;99.90;;;;;;5054320;28;20118;-64
2022/06/14 00:38:28;;;;;;;5.50;2.72;;;12.60;99.90;;;;;;5054639;28;20056;-65
2022/06/14 00:40:58;;;;;;;3.65;2.45;;;12.60;99.90;;;;;;5046039;28;20517;-64
2022/06/14 00:43:26;;;;;;;4.13;2.33;;;12.70;99.90;;;;;;5037325;28;20049;-65
2022/06/14 00:46:13;;;;;;;6.57;2.30;;;12.60;99.90;;;;;;5054101;28;20041;-65
2022/06/14 00:48:42;;;;;;;6.03;2.63;;;12.60;99.90;;;;;;5046245;28;20052;-65
2022/06/14 00:51:23;;;;;;;7.13;2.65;;;12.50;99.90;;;;;;5053485;28;20049;-65
2022/06/14 00:53:59;;;;;;;5.78;2.42;;;12.50;99.90;;;;;;5049217;28;20053;-65
2022/06/14 00:56:37;;;;;;;3.05;2.28;;;12.50;99.90;;;;;;5054068;28;20049;-65
2022/06/14 00:59:17;;;;;;;4.93;2.50;;;12.40;99.90;;;;;;5049918;28;20160;-65
2022/06/14 01:01:47;;;;;;;2.78;2.47;;;12.40;99.90;;;;;;5053435;28;20041;-65
2022/06/14 01:04:23;;;;;;;5.07;2.22;;;12.40;99.90;;;;;;5053922;28;20397;-65
2022/06/14 01:07:24;;;;;;;4.85;2.17;;;12.40;99.90;;;;;;5054140;28;20479;-65
2022/06/14 01:09:56;;;;;;;4.43;2.42;;;12.40;99.90;;;;;;5042031;28;20080;-64
2022/06/14 01:12:28;;;;;;;3.15;2.10;;;12.40;99.90;;;;;;5053910;28;20063;-65
2022/06/14 01:15:05;;;;;;;3.83;2.30;;;12.30;99.90;;;;;;5053743;28;20075;-64
2022/06/14 01:17:38;;;;;;;5.77;2.63;;;12.30;99.90;;;;;;5048988;28;20543;-65
2022/06/14 01:20:05;;;;;;;4.68;2.58;;;12.20;99.90;;;;;;5071923;22;20293;-69
2022/06/14 01:22:32;;;;;;;7.03;2.28;;;12.10;99.90;;;;;;5057416;28;20067;-69
2022/06/14 01:25:02;;;;;;;6.55;2.50;;;12.00;99.90;;;;;;5052577;28;20083;-70
2022/06/14 01:27:31;;;;;;;6.35;2.47;;;12.00;99.90;;;;;;5053956;28;20041;-69
2022/06/14 01:30:21;;;;;;;3.20;2.05;;;12.00;99.90;;;;;;5063818;28;20037;-70
2022/06/14 01:32:51;;;;;;;4.72;2.13;;;12.10;99.90;;;;;;5072284;28;20378;-70
2022/06/14 01:35:21;;;;;;;3.25;2.35;;;12.10;99.90;;;;;;5073738;28;20048;-70
2022/06/14 01:37:52;;;;;;;6.40;2.67;;;12.00;99.90;;;;;;5073636;28;20048;-70
2022/06/14 01:40:24;;;;;;;7.85;2.40;;;12.00;99.90;;;;;;5065233;28;20056;-70
2022/06/14 01:43:13;;;;;;;4.78;2.40;;;11.90;99.90;;;;;;5072535;28;20094;-70
2022/06/14 01:46:16;;;;;;;3.47;2.40;;;11.90;99.90;;;;;;5072082;28;20041;-70
2022/06/14 01:48:52;;;;;;;5.60;2.38;;;11.90;99.90;;;;;;5069405;28;20109;-70
2022/06/14 01:51:50;;;;;;;9.07;2.70;;;11.90;99.90;;;;;;5060944;28;20037;-70
2022/06/14 01:54:41;;;;;;;5.07;2.58;;;11.80;99.90;;;;;;5053373;28;20045;-70
2022/06/14 01:57:35;;;;;;;6.70;2.78;;;11.80;99.90;;;;;;5053424;28;20429;-70
2022/06/14 02:00:08;;;;;;;3.08;2.28;;;11.80;99.90;;;;;;5060894;28;20041;-70
2022/06/14 02:02:51;;;;;;;2.90;2.35;;;11.80;99.90;;;;;;5053156;28;20049;-70
2022/06/14 02:05:31;;;;;;;5.03;2.40;;;11.80;99.90;;;;;;5053218;28;20124;-70
2022/06/14 02:08:01;;;;;;;6.65;2.45;;;11.80;99.90;;;;;;5065683;28;20099;-69
2022/06/14 02:10:37;;;;;;;4.78;2.60;;;11.70;99.90;;;;;;5068538;28;20041;-70
2022/06/14 02:13:09;;;;;;;3.40;2.08;;;11.70;99.90;;;;;;5073078;28;20051;-70
2022/06/14 02:15:42;;;;;;;4.82;2.20;;;11.70;99.90;;;;;;5071798;28;20420;-71
2022/06/14 02:18:22;;;;;;;7.18;2.40;;;11.70;99.90;;;;;;5066153;28;20052;-70
2022/06/14 02:21:07;;;;;;;4.40;2.30;;;11.70;99.90;;;;;;5072228;28;20052;-69
2022/06/14 02:23:45;;;;;;;4.32;2.55;;;11.70;99.90;;;;;;5072176;28;20500;-69
2022/06/14 02:26:36;;;;;;;6.07;2.67;;;11.60;99.90;;;;;;5066510;28;20044;-70
2022/06/14 02:29:13;;;;;;;6.32;2.35;;;11.60;99.90;;;;;;5072589;28;20040;-70
2022/06/14 02:31:42;;;;;;;6.25;2.50;;;11.60;99.90;;;;;;5070318;28;20052;-70
2022/06/14 02:34:23;;;;;;;6.57;2.45;;;11.50;99.90;;;;;;5065735;28;20056;-70
2022/06/14 02:36:57;;;;;;;3.60;2.30;;;11.60;99.90;;;;;;5072515;28;20102;-70
2022/06/14 02:39:31;;;;;;;4.70;2.15;;;11.60;99.90;;;;;;5072130;28;20435;-70
2022/06/14 02:42:19;;;;;;;3.30;2.55;;;11.50;99.90;;;;;;5063703;28;20447;-70
2022/06/14 02:45:04;;;;;;;4.00;2.05;;;11.60;99.90;;;;;;5072462;28;20046;-69
2022/06/14 02:47:51;;;;;;;7.32;2.60;;;11.50;99.90;;;;;;5071930;28;20044;-70
2022/06/14 02:50:28;;;;;;;4.30;2.72;;;11.50;99.90;;;;;;5041868;28;20048;-70
2022/06/14 02:53:05;;;;;;;7.45;2.40;;;11.50;99.90;;;;;;5052152;28;20090;-70
2022/06/14 02:55:47;;;;;;;7.82;2.55;;;11.50;99.90;;;;;;5052436;28;20225;-69
2022/06/14 02:58:20;;;;;;;8.40;2.40;;;11.40;99.90;;;;;;5062438;28;20036;-70
2022/06/14 03:00:58;;;;;;;6.20;2.92;;;11.30;99.90;;;;;;5063309;28;20040;-70
2022/06/14 03:03:29;;;;;;;;;;;11.30;99.90;;;;;;5072236;28;20036;-71
2022/06/14 03:06:08;;;;;;;8.43;2.72;;;11.30;99.90;;;;;;5071581;28;19974;-71
2022/06/14 03:08:46;;;;;;;8.48;2.90;;;11.30;99.90;;;;;;5063429;28;20459;-71
2022/06/14 03:11:40;;;;;;;7.97;2.35;;;11.30;99.90;;;;;;5071387;28;20044;-70
2022/06/14 03:14:33;;;;;;;9.27;2.67;;;11.20;99.90;;;;;;5071326;28;20044;-70
2022/06/14 03:17:30;;;;;;;5.18;2.72;;;11.20;99.90;;;;;;5051901;28;20041;-70
2022/06/14 03:20:16;;;;;;;4.13;2.50;;;11.20;99.90;;;;;;5051144;28;20448;-70
2022/06/14 03:22:53;;;;;;;4.28;2.00;;;11.20;99.90;;;;;;5054822;28;20048;-70
2022/06/14 03:25:39;;;;;;;6.15;2.22;;;11.20;99.90;;;;;;5063382;28;20086;-69
2022/06/14 03:28:31;;;;;;;5.22;2.45;;;11.20;99.90;;;;;;5071699;28;20102;-70
2022/06/14 03:31:03;;;;;;;3.00;2.38;;;11.10;99.90;;;;;;5071151;28;20082;-70
2022/06/14 03:33:48;;;;;;;3.97;2.80;;;11.10;99.90;;;;;;5070925;28;20044;-70
2022/06/14 03:36:16;;;;;;;5.97;2.15;;;11.10;99.90;;;;;;5065838;28;20040;-70
2022/06/14 03:38:47;;;;;;;;;;;11.10;99.90;;;;;;5071797;28;20048;-69
2022/06/14 03:41:17;;;;;;;7.53;3.13;;;11.10;99.90;;;;;;5070496;28;19920;-70
2022/06/14 03:43:44;;;;;;;5.88;2.72;;;11.10;99.90;;;;;;5061712;28;20048;-71
2022/06/14 03:46:20;;;;;;;;;;;11.10;99.90;;;;;;5071746;28;20045;-70
2022/06/14 03:48:51;;;;;;;3.80;2.13;;;11.10;99.90;;;;;;5052560;28;19924;-69
2022/06/14 03:51:24;;;;;;;5.82;3.13;;;11.10;99.90;;;;;;5062564;28;20037;-70
2022/06/14 03:54:18;;;;;;;5.57;2.58;;;11.10;99.90;;;;;;5071438;28;20040;-70
2022/06/14 03:56:54;;;;;;;5.43;2.75;;;11.10;99.90;;;;;;5071441;28;20386;-70
2022/06/14 03:59:44;;;;;;;3.97;2.55;;;11.10;99.90;;;;;;5064174;28;20102;-70
2022/06/14 04:02:53;;;;;;;5.20;2.45;;;11.10;99.90;;;;;;5050979;28;20045;-70
2022/06/14 04:05:51;;;;;;;4.75;3.08;;;11.20;99.90;;;;;;5055505;28;20044;-70
2022/06/14 04:08:36;;;;;;;4.90;2.88;;;11.20;99.90;;;;;;5061765;28;20036;-69
2022/06/14 04:11:33;;;;;;;3.97;2.83;;;11.20;99.90;;;;;;5074625;28;20169;-70
2022/06/14 04:14:22;;;;;;;6.68;2.50;;;11.20;99.90;;;;;;5074818;28;20439;-70
2022/06/14 04:17:11;;;;;;;5.45;2.30;;;11.20;99.90;;;;;;5061417;28;20045;-70
2022/06/14 04:19:46;;;;;;;3.42;2.40;;;11.20;99.90;;;;;;5073817;28;20086;-70
2022/06/14 04:22:46;;;;;;;3.40;2.70;;;11.20;99.90;;;;;;5072072;28;20036;-69
2022/06/14 04:25:17;;;;;;;5.38;2.55;;;11.20;99.90;;;;;;5071976;28;20036;-69
2022/06/14 04:28:12;;;;;;;6.05;2.65;;;11.30;99.90;;;;;;5074626;28;20519;-70
2022/06/14 04:30:53;;;;;;;6.07;3.20;;;11.30;99.90;;;;;;5046271;28;20064;-70
2022/06/14 04:33:33;;;;;;;4.47;2.67;;;11.40;99.90;;;;;;5073606;28;20110;-69
2022/06/14 04:36:20;;;;;;;4.35;2.58;;;11.40;99.90;;;;;;5074084;28;20048;-70
2022/06/14 04:38:53;;;;;;;3.00;2.53;;;11.50;99.90;;;;;;5073702;28;20044;-70
2022/06/14 04:41:31;;;;;;;4.10;2.55;;;11.60;99.90;;;;;;5073721;28;20074;-70
2022/06/14 04:44:06;;;;;;;7.55;2.50;;;11.60;99.90;;;;;;5072692;28;20047;-70
2022/06/14 04:46:53;;;;;;;6.70;3.72;;;11.70;99.90;;;;;;5071100;28;20047;-70
2022/06/14 04:49:24;;;;;;;6.13;3.90;;;11.80;99.90;;;;;;5072050;28;20041;-71
2022/06/14 04:52:01;;;;;;;8.00;4.07;;;11.90;99.90;;;;;;5063165;28;20041;-71
2022/06/14 04:54:48;;;;;;;7.18;4.07;;;11.90;99.90;;;;;;5073897;28;20044;-70
2022/06/14 04:57:33;;;;;;;6.13;4.47;;;12.00;99.90;;;;;;5074520;28;20036;-68
2022/06/14 05:00:09;;;;;;;7.10;3.78;;;12.10;99.90;;;;;;5070005;28;20040;-70
2022/06/14 05:03:08;;;;;;;3.55;2.78;;;12.20;99.90;;;;;;5054198;28;20053;-70
2022/06/14 05:05:45;;;;;;;5.10;3.47;;;12.10;99.90;;;;;;5026411;28;20051;-71
2022/06/14 05:08:29;;;;;;;6.53;3.70;;;12.30;99.90;;;;;;5071546;28;20089;-70
2022/06/14 05:11:04;;;;;;;5.28;3.83;;;12.30;99.90;;;;;;5071128;28;20056;-71
2022/06/14 05:13:44;;;;;;;6.25;4.32;;;12.40;99.90;;;;;;5072645;28;20048;-70
2022/06/14 05:16:19;;;;;;;10.10;4.72;;;12.40;99.90;;;;;;5072136;28;20511;-71
2022/06/14 05:19:10;;;;;;;9.05;4.75;;;12.50;99.90;;;;;;5071773;28;20064;-70
2022/06/14 05:21:52;;;;;;;6.78;4.35;;;12.50;99.90;;;;;;5073158;28;20048;-70
2022/06/14 05:24:21;;;;;;;9.32;4.70;;;12.60;99.90;;;;;;5062203;28;20482;-70
2022/06/14 05:27:22;;;;;;;9.55;4.40;;;12.70;99.90;;;;;;5072473;28;20530;-70
2022/06/14 05:30:15;;;;;;;11.88;4.18;;;12.80;99.90;;;;;;5073568;28;20045;-70
2022/06/14 05:33:11;;;;;;;10.43;4.70;;;13.00;99.90;;;;;;5071798;28;20051;-70
2022/06/14 05:35:53;;;;;;;9.15;4.80;;;13.10;99.90;;;;;;5070928;28;20447;-69
2022/06/14 05:38:45;;;;;;;15.98;3.92;;;13.00;99.90;;;;;;5073505;28;20049;-70
2022/06/14 05:41:40;;;;;;;10.13;4.85;;;13.00;99.90;;;;;;5072787;28;20040;-70
2022/06/14 05:44:24;;;;;;;7.07;4.85;;;13.00;99.90;;;;;;5066484;28;20501;-71
2022/06/14 05:46:59;;;;;;;12.13;4.20;;;13.00;99.90;;;;;;5073108;28;20045;-70
2022/06/14 05:49:34;;;;;;;10.70;4.32;;;13.10;99.90;;;;;;5069804;28;20045;-70
2022/06/14 05:52:18;;;;;;;18.35;6.15;;;13.20;99.90;;;;;;5060216;28;20405;-70
2022/06/14 05:55:03;;;;;;;11.63;4.30;;;13.20;99.90;;;;;;5053183;28;20045;-70
2022/06/14 05:57:38;;;;;;;13.07;4.65;;;13.30;99.90;;;;;;5051914;28;20052;-70
2022/06/14 06:00:23;;;;;;;16.55;4.85;;;13.30;99.90;;;;;;5062742;28;20044;-70
2022/06/14 06:03:05;;;;;;;8.82;4.20;;;13.40;99.90;;;;;;5071887;28;20048;-70
2022/06/14 06:05:48;;;;;;;12.00;4.25;;;13.50;99.90;;;;;;5071981;28;20036;-70
2022/06/14 06:08:41;;;;;;;15.20;3.65;;;13.50;99.90;;;;;;5072373;28;20033;-70
2022/06/14 06:11:19;;;;;;;31.63;4.38;;;13.60;99.90;;;;;;5065243;28;20448;-70
2022/06/14 06:13:51;;;;;;;11.13;4.03;;;13.70;99.90;;;;;;5072912;28;20053;-70
2022/06/14 06:16:34;;;;;;;16.73;3.83;;;13.90;99.90;;;;;;5071572;28;20041;-70
2022/06/14 06:19:29;;;;;;;9.13;3.30;;;14.00;99.90;;;;;;5060770;28;20041;-71
2022/06/14 06:22:07;;;;;;;7.88;3.80;;;14.00;99.90;;;;;;5049874;28;20106;-71
2022/06/14 06:24:43;;;;;;;9.27;3.92;;;14.10;99.90;;;;;;5072670;28;20040;-71
2022/06/14 06:27:16;;;;;;;9.07;4.07;;;14.20;99.90;;;;;;5071159;28;20045;-71
2022/06/14 06:30:01;;;;;;;5.38;3.67;;;14.30;99.90;;;;;;5072239;28;20040;-70
2022/06/14 06:32:31;;;;;;;15.02;5.95;;;14.30;99.90;;;;;;5072010;28;20534;-71
2022/06/14 06:35:01;;;;;;;9.80;4.53;;;14.50;99.90;;;;;;5071844;28;20412;-71
2022/06/14 06:37:43;;;;;;;11.63;5.45;;;14.60;99.90;;;;;;5064071;28;20382;-71
2022/06/14 06:40:10;;;;;;;6.60;3.42;;;14.70;99.90;;;;;;5071359;28;20052;-71
2022/06/14 06:42:46;;;;;;;6.15;3.75;;;14.90;99.90;;;;;;5072007;28;20045;-71
2022/06/14 06:45:15;;;;;;;5.63;3.20;;;15.10;99.90;;;;;;5066144;28;20040;-71
2022/06/14 06:47:51;;;;;;;11.82;3.70;;;15.10;99.90;;;;;;5069934;28;20098;-71
2022/06/14 06:50:40;;;;;;;6.70;3.30;;;15.30;99.90;;;;;;5071260;28;20498;-71
2022/06/14 06:53:18;;;;;;;8.88;3.45;;;15.40;99.90;;;;;;5059009;28;20047;-71
2022/06/14 06:55:52;;;;;;;7.28;3.40;;;15.60;99.90;;;;;;5063538;28;20048;-70
2022/06/14 06:58:36;;;;;;;6.15;3.25;;;15.80;99.90;;;;;;5072107;28;20404;-71
2022/06/14 07:01:14;;;;;;;9.18;2.90;;;16.00;99.90;;;;;;5071484;28;20048;-71
2022/06/14 07:03:44;;;;;;;;;;;16.20;99.90;;;;;;5070113;28;20041;-71
2022/06/14 07:06:27;;;;;;;5.72;2.88;;;16.40;99.90;;;;;;5065235;28;19986;-71
2022/06/14 07:08:59;;;;;;;7.97;3.33;;;16.50;99.90;;;;;;5071657;28;20101;-71
2022/06/14 07:11:49;;;;;;;11.02;3.60;;;16.70;99.90;;;;;;5070835;28;20106;-71
2022/06/14 07:14:50;;;;;;;8.70;3.13;;;16.80;99.90;;;;;;5041093;28;20044;-70
2022/06/14 07:17:28;;;;;;;7.28;3.15;;;16.90;99.90;;;;;;5061411;28;20069;-71
2022/06/14 07:20:05;;;;;;;5.00;3.45;;;17.00;99.90;;;;;;5070725;28;20041;-71
2022/06/14 07:23:09;;;;;;;7.20;2.92;;;17.10;99.90;;;;;;5106826;22;20536;-65
2022/06/14 07:25:48;;;;;;;7.15;3.58;;;17.30;99.90;;;;;;5108470;28;20051;-65
2022/06/14 07:28:45;;;;;;;9.30;3.22;;;17.40;99.90;;;;;;5110809;28;20043;-67
2022/06/14 07:31:30;;;;;;;4.85;3.10;;;17.60;99.90;;;;;;5105131;28;20032;-65
2022/06/14 07:33:59;;;;;;;8.25;3.35;;;17.70;99.90;;;;;;5083286;28;20052;-65
2022/06/14 07:36:42;;;;;;;6.55;3.67;;;17.80;99.90;;;;;;5072623;28;20048;-65
2022/06/14 07:39:50;;;;;;;9.30;4.25;;;17.70;99.90;;;;;;5091052;28;20047;-65
2022/06/14 07:42:33;;;;;;;7.20;2.90;;;17.80;99.90;;;;;;5052608;28;20067;-66
2022/06/14 07:45:17;;;;;;;4.28;2.80;;;18.00;99.90;;;;;;5071502;28;20045;-66
2022/06/14 07:48:05;;;;;;;3.92;2.28;;;18.10;99.90;;;;;;5073458;28;20052;-65
2022/06/14 07:50:44;;;;;;;7.63;3.20;;;18.20;99.90;;;;;;5082293;28;20040;-66
2022/06/14 07:53:30;;;;;;;7.22;3.08;;;18.20;99.90;;;;;;5091641;28;20066;-66
2022/06/14 07:56:10;;;;;;;7.57;2.95;;;18.10;99.90;;;;;;5084845;28;20093;-65
2022/06/14 07:58:42;;;;;;;7.50;2.78;;;18.30;99.90;;;;;;5081852;28;20070;-66
2022/06/14 08:01:34;;;;;;;7.40;3.13;;;18.40;99.90;;;;;;5076601;28;20087;-66
2022/06/14 08:04:15;;;;;;;13.23;4.05;;;18.50;99.90;;;;;;5072979;28;20106;-66
2022/06/14 08:06:47;;;;;;;8.38;3.95;;;18.50;99.90;;;;;;5082212;28;20074;-66
2022/06/14 08:09:26;;;;;;;12.30;4.00;;;18.60;99.90;;;;;;5091265;28;20503;-66
2022/06/14 08:11:55;;;;;;;13.90;5.28;;;18.70;99.90;;;;;;5090231;28;20519;-66
2022/06/14 08:15:14;;;;;;;8.75;3.78;;;18.90;99.90;;;;;;5084175;28;20079;-66
2022/06/14 08:18:00;;;;;;;5.68;2.83;;;18.90;99.90;;;;;;4989330;28;20085;-66
2022/06/14 08:20:35;;;;;;;6.00;2.88;;;18.90;99.90;;;;;;5064532;28;20543;-66
2022/06/14 08:23:13;;;;;;;4.25;2.90;;;19.00;99.90;;;;;;5083042;28;20520;-66
2022/06/14 08:25:46;;;;;;;5.88;3.33;;;19.10;99.90;;;;;;5088420;28;20071;-66
2022/06/14 08:28:23;;;;;;;5.97;3.30;;;19.20;99.90;;;;;;5091087;28;20044;-66
2022/06/14 08:31:00;;;;;;;8.07;3.30;;;19.30;99.90;;;;;;5090052;28;20428;-66
2022/06/14 08:33:58;;;;;;;8.65;3.83;;;19.40;99.90;;;;;;5076745;28;20040;-66
2022/06/14 08:36:43;;;;;;;6.03;3.03;;;19.50;99.90;;;;;;5089824;28;20134;-66
2022/06/14 08:39:18;;;;;;;7.60;3.30;;;19.70;99.90;;;;;;5090123;28;20043;-67
2022/06/14 08:42:05;;;;;;;5.88;2.72;;;19.80;99.90;;;;;;5082005;28;20181;-66
2022/06/14 08:44:38;;;;;;;6.70;3.22;;;19.90;99.90;;;;;;5091157;28;20041;-67
2022/06/14 08:47:23;;;;;;;5.40;2.67;;;20.10;99.90;;;;;;5090774;28;20105;-67
2022/06/14 08:50:31;;;;;;;6.00;2.63;;;20.00;99.90;;;;;;5089778;28;20036;-68
2022/06/14 08:53:41;;;;;;;5.45;2.83;;;19.90;99.90;;;;;;5044391;28;20064;-67
2022/06/14 08:56:30;;;;;;;4.18;3.03;;;20.00;99.90;;;;;;5075848;28;20056;-68
2022/06/14 08:59:47;;;;;;;8.25;2.90;;;20.10;99.90;;;;;;5085734;28;20052;-68
2022/06/14 09:02:16;;;;;;;8.95;3.08;;;20.20;99.90;;;;;;5076627;28;20063;-68
2022/06/14 09:05:05;;;;;;;6.30;2.70;;;20.20;99.90;;;;;;5075860;28;20063;-68
2022/06/14 09:07:51;;;;;;;6.18;2.60;;;20.30;99.90;;;;;;5086068;28;20032;-68
2022/06/14 09:10:47;;;;;;;6.22;2.63;;;20.40;99.90;;;;;;5093583;28;20439;-68
2022/06/14 09:13:41;;;;;;;4.82;2.92;;;20.40;99.90;;;;;;5083263;28;20044;-68
2022/06/14 09:16:52;;;;;;;5.32;3.08;;;20.50;99.90;;;;;;5087331;28;20048;-67
2022/06/14 09:19:40;;;;;;;8.00;2.65;;;20.60;99.90;;;;;;5094043;28;20461;-68
2022/06/14 09:22:46;;;;;;;3.95;2.60;;;20.70;99.90;;;;;;5086870;28;20569;-67
2022/06/14 09:25:46;;;;;;;8.25;3.00;;;20.70;99.90;;;;;;5073945;28;20451;-68
2022/06/14 09:28:50;;;;;;;6.22;3.17;;;20.90;99.90;;;;;;5074006;28;20374;-67
2022/06/14 09:31:20;;;;;;;6.95;2.35;;;21.00;99.90;;;;;;5080096;28;20040;-67
2022/06/14 09:34:04;;;;;;;6.03;3.00;;;21.00;99.90;;;;;;5081317;28;20400;-67
2022/06/14 09:36:55;;;;;;;7.43;2.60;;;21.00;99.90;;;;;;5090364;28;20044;-67
2022/06/14 09:39:51;;;;;;;9.20;2.65;;;20.80;99.90;;;;;;5089846;28;20044;-67
2022/06/14 09:42:35;;;;;;;5.15;2.40;;;20.90;99.90;;;;;;5064818;28;20051;-67
2022/06/14 09:45:39;;;;;;;8.35;3.00;;;21.00;99.90;;;;;;5086165;28;20392;-68
2022/06/14 09:48:25;;;;;;;10.00;3.25;;;21.10;99.90;;;;;;5086996;28;20044;-69
2022/06/14 09:50:58;;;;;;;7.45;2.65;;;21.20;99.90;;;;;;5083026;28;20041;-67
2022/06/14 09:53:56;;;;;;;5.90;2.70;;;21.20;99.90;;;;;;5083649;28;20497;-68
2022/06/14 09:56:41;;;;;;;5.85;2.55;;;21.40;99.90;;;;;;5080936;28;20036;-70
2022/06/14 09:59:29;;;;;;;6.13;2.85;;;21.50;99.90;;;;;;5081501;28;20040;-71
2022/06/14 10:02:33;;;;;;;5.10;2.53;;;21.60;99.90;;;;;;5081517;28;20077;-70
2022/06/14 10:05:18;;;;;;;9.10;2.88;;;21.60;99.90;;;;;;5083553;28;20565;-71
2022/06/14 10:07:54;;;;;;;9.40;2.67;;;21.60;99.90;;;;;;5081892;28;20032;-71
2022/06/14 10:11:01;;;;;;;6.18;2.88;;;21.70;99.90;;;;;;5084406;28;20115;-70
2022/06/14 10:13:34;;;;;;;6.28;2.42;;;21.70;99.90;;;;;;5080173;28;20052;-70
2022/06/14 10:16:46;;;;;;;4.85;2.33;;;21.80;99.90;;;;;;5072885;28;20094;-67
2022/06/14 10:19:32;;;;;;;6.57;2.17;;;21.90;99.90;;;;;;5054961;28;20074;-66
2022/06/14 10:22:08;;;;;;;4.60;2.47;;;21.90;99.90;;;;;;5080210;28;20662;-67
2022/06/14 10:24:52;;;;;;;7.15;2.15;;;22.00;99.90;;;;;;5083652;28;20131;-67
2022/06/14 10:28:12;;;;;;;6.15;2.38;;;22.10;99.90;;;;;;5081069;28;20074;-69
2022/06/14 10:30:57;;;;;;;5.35;2.35;;;22.10;99.90;;;;;;5009418;28;20042;-68
2022/06/14 10:33:30;;;;;;;3.88;2.20;;;22.10;99.90;;;;;;5010617;28;20053;-71
2022/06/14 10:36:16;;;;;;;4.47;2.45;;;22.30;99.90;;;;;;5063216;28;20052;-69
2022/06/14 10:39:12;;;;;;;5.63;2.03;;;22.50;99.90;;;;;;5081403;28;20044;-69
2022/06/14 10:41:49;;;;;;;4.97;2.10;;;22.40;99.90;;;;;;5082011;28;20045;-69
2022/06/14 10:44:21;;;;;;;7.60;2.42;;;22.30;99.90;;;;;;5084056;28;20040;-70
2022/06/14 10:46:57;;;;;;;5.75;1.88;;;22.40;99.90;;;;;;5076157;28;20115;-67
2022/06/14 10:49:55;;;;;;;3.83;2.22;;;22.40;99.90;;;;;;5054367;28;20386;-68
2022/06/14 10:52:53;;;;;;;8.70;2.42;;;22.30;99.90;;;;;;5077175;28;20044;-67
2022/06/14 10:55:47;;;;;;;4.07;1.88;;;22.40;99.90;;;;;;5080376;28;20032;-68
2022/06/14 10:58:48;;;;;;;4.72;2.15;;;22.60;99.90;;;;;;5072035;28;20447;-67
2022/06/14 11:01:58;;;;;;;9.32;2.40;;;22.60;99.90;;;;;;5078081;28;20036;-68
2022/06/14 11:04:25;;;;;;;3.80;1.95;;;22.60;99.90;;;;;;5087657;28;20085;-67
2022/06/14 11:06:57;;;;;;;3.08;2.08;;;22.60;99.90;;;;;;5074101;28;20570;-67
2022/06/14 11:09:44;;;;;;;11.65;2.30;;;22.70;99.90;;;;;;5091539;28;20511;-67
2022/06/14 11:12:41;;;;;;;7.65;2.75;;;22.80;99.90;;;;;;5074591;28;20067;-66
2022/06/14 11:15:17;;;;;;;3.60;2.20;;;23.00;99.90;;;;;;5092078;28;20044;-66
2022/06/14 11:17:54;;;;;;;6.70;2.00;;;23.00;99.90;;;;;;5087751;28;20381;-66
2022/06/14 11:20:33;;;;;;;4.05;2.45;;;22.90;99.90;;;;;;5081949;28;20040;-66
2022/06/14 11:23:18;;;;;;;4.07;1.88;;;23.00;99.90;;;;;;5080302;28;20040;-67
2022/06/14 11:26:09;;;;;;;8.07;2.17;;;23.20;99.90;;;;;;5063079;28;20041;-67
2022/06/14 11:28:59;;;;;;;5.88;2.00;;;23.10;99.90;;;;;;5080331;28;20048;-66
2022/06/14 11:31:49;;;;;;;4.72;2.25;;;23.10;99.90;;;;;;5091442;28;20044;-66
2022/06/14 11:34:26;;;;;;;5.00;2.25;;;23.20;99.90;;;;;;5091581;28;20411;-67
2022/06/14 11:37:46;;;;;;;5.18;2.45;;;23.20;98.90;;;;;;5087181;28;20048;-67
2022/06/14 11:40:32;;;;;;;15.20;2.35;;;23.20;99.90;;;;;;5071149;28;20051;-68
2022/06/14 11:43:31;;;;;;;4.55;2.10;;;23.10;99.90;;;;;;5071864;28;20040;-65
2022/06/14 11:46:08;;;;;;;4.20;1.95;;;23.20;99.70;;;;;;5079677;28;20117;-64
2022/06/14 11:49:01;;;;;;;4.03;1.73;;;23.20;98.30;;;;;;5071372;28;20407;-65
2022/06/14 11:52:05;;;;;;;4.30;2.05;;;23.20;99.90;;;;;;5070801;28;20044;-66
2022/06/14 11:55:06;;;;;;;8.02;2.28;;;23.40;98.70;;;;;;5087939;28;20044;-66
2022/06/14 11:58:15;;;;;;;5.10;2.35;;;23.30;98.50;;;;;;5088328;28;20056;-66
2022/06/14 12:00:57;;;;;;;4.47;2.22;;;23.20;97.60;;;;;;5090478;28;20036;-67
2022/06/14 12:03:53;;;;;;;4.40;2.10;;;23.30;99.70;;;;;;5079785;28;20400;-67
2022/06/14 12:06:50;;;;;;;3.63;2.05;;;23.40;99.20;;;;;;5071002;28;20032;-67
2022/06/14 12:10:05;;;;;;;4.65;1.80;;;23.50;98.00;;;;;;5076599;28;20124;-67
2022/06/14 12:12:53;;;;;;;5.88;1.92;;;23.50;98.70;;;;;;5010789;28;20050;-67
2022/06/14 12:15:52;;;;;;;4.37;2.10;;;23.50;96.60;;;;;;5089499;28;20040;-67
2022/06/14 12:18:23;;;;;;;6.50;2.33;;;23.50;97.70;;;;;;5056929;28;20059;-68
2022/06/14 12:21:32;;;;;;;5.75;2.38;;;23.40;97.70;;;;;;5078945;28;20076;-67
2022/06/14 12:24:05;;;;;;;4.55;1.90;;;23.40;96.20;;;;;;5071856;28;20092;-67
2022/06/14 12:26:41;;;;;;;5.82;2.13;;;23.50;97.30;;;;;;5074752;28;20036;-67
2022/06/14 12:29:22;;;;;;;5.18;2.08;;;23.50;96.80;;;;;;5082352;28;20036;-67
2022/06/14 12:31:59;;;;;;;3.17;2.05;;;23.50;97.00;;;;;;5086205;28;20454;-67
2022/06/14 12:34:37;;;;;;;5.15;1.83;;;23.60;96.00;;;;;;5095210;28;20093;-67
2022/06/14 12:37:04;;;;;;;3.70;1.92;;;23.50;97.50;;;;;;5094567;28;20573;-67
2022/06/14 12:39:56;;;;;;;5.32;1.85;;;23.50;96.50;;;;;;5092465;28;20039;-67
2022/06/14 12:42:47;;;;;;;4.68;2.20;;;23.90;97.70;;;;;;5090175;28;20113;-67
2022/06/14 12:45:25;;;;;;;8.70;1.92;;;23.90;95.90;;;;;;5094938;28;20067;-67
2022/06/14 12:48:17;;;;;;;5.60;2.00;;;23.90;95.20;;;;;;5085398;28;20151;-67
2022/06/14 12:50:48;;;;;;;7.47;1.98;;;23.80;96.00;;;;;;5094379;28;20074;-67
2022/06/14 12:53:35;;;;;;;4.43;2.35;;;23.90;96.10;;;;;;5094876;28;20040;-67
2022/06/14 12:56:21;;;;;;;2.60;1.90;;;23.90;96.60;;;;;;5093975;28;20052;-67
2022/06/14 12:59:23;;;;;;;4.05;2.15;;;24.10;95.90;;;;;;5086246;28;20044;-67
2022/06/14 13:01:57;;;;;;;5.93;2.05;;;24.20;95.80;;;;;;5094217;28;20036;-68
2022/06/14 13:04:33;;;;;;;4.75;2.20;;;24.20;95.50;;;;;;5075899;28;20082;-67
2022/06/14 13:07:16;;;;;;;3.90;2.08;;;24.30;95.90;;;;;;5082671;28;20090;-67
2022/06/14 13:10:12;;;;;;;3.80;2.00;;;24.50;95.60;;;;;;5074298;28;20048;-67
2022/06/14 13:13:04;;;;;;;6.35;2.40;;;24.30;94.50;;;;;;5080242;28;20040;-67
2022/06/14 13:15:56;;;;;;;2.75;2.00;;;24.40;95.70;;;;;;5085794;28;20558;-67
2022/06/14 13:18:31;;;;;;;7.30;2.28;;;24.40;95.90;;;;;;5084109;28;20044;-67
2022/06/14 13:21:18;;;;;;;3.97;2.10;;;24.40;94.90;;;;;;5083207;28;20090;-68
2022/06/14 13:24:09;;;;;;;7.88;2.55;;;24.30;95.40;;;;;;5063992;28;20048;-66
2022/06/14 13:27:01;;;;;;;4.30;2.20;;;24.40;96.70;;;;;;5051386;28;20041;-68
2022/06/14 13:30:05;;;;;;;4.18;2.20;;;24.50;95.40;;;;;;5066331;28;20056;-68
2022/06/14 13:32:57;;;;;;;10.57;2.17;;;24.60;94.90;;;;;;5069448;28;20451;-67
2022/06/14 13:35:52;;;;;;;6.28;1.98;;;24.70;95.20;;;;;;5071151;28;20554;-67
2022/06/14 13:39:02;;;;;;;6.07;2.10;;;24.70;95.00;;;;;;5070167;28;20038;-67
2022/06/14 13:41:40;;;;;;;5.10;2.13;;;24.60;95.40;;;;;;5070370;28;20036;-67
2022/06/14 13:44:18;;;;;;;5.45;2.30;;;24.60;94.70;;;;;;5072554;28;20049;-67
2022/06/14 13:46:53;;;;;;;9.32;2.30;;;24.60;94.80;;;;;;5072715;28;20654;-68
2022/06/14 13:49:30;;;;;;;3.63;2.17;;;24.60;95.50;;;;;;5065688;28;20044;-67
2022/06/14 13:52:22;;;;;;;6.97;2.35;;;24.50;93.90;;;;;;5072937;28;20052;-68
2022/06/14 13:54:52;;;;;;;4.57;2.25;;;24.40;95.20;;;;;;5073474;28;20052;-67
2022/06/14 13:57:30;;;;;;;5.53;2.75;;;24.30;93.30;;;;;;5072197;28;20094;-67
2022/06/14 14:00:03;;;;;;;4.00;2.45;;;24.20;94.20;;;;;;5064689;28;20048;-67
2022/06/14 14:02:37;;;;;;;7.60;2.17;;;24.20;94.50;;;;;;5073151;28;20076;-67
2022/06/14 14:05:18;;;;;;;5.70;2.10;;;24.30;94.10;;;;;;5067358;28;20067;-67
2022/06/14 14:08:06;;;;;;;4.85;2.03;;;24.40;94.40;;;;;;5062977;28;20049;-67
2022/06/14 14:10:52;;;;;;;5.78;2.47;;;24.60;94.70;;;;;;5072765;28;20040;-68